sensor_id;sensor_type;location;lat;lon;timestamp;P1;durP1;ratioP1;P2;durP2;ratioP2
26277;SDS011;14000;52.056;8.510;2023-07-20T00:02:10;8.47;;;2.77;;
26277;SDS011;14000;52.056;8.510;2023-07-20T00:04:36;12.43;;;3.17;;
26277;SDS011;14000;52.056;8.510;2023-07-20T00:07:01;10.53;;;3.07;;
26277;SDS011;14000;52.056;8.510;2023-07-20T00:09:28;13.27;;;3.10;;
26277;SDS011;14000;52.056;8.510;2023-07-20T00:11:54;11.87;;;2.80;;
26277;SDS011;14000;52.056;8.510;2023-07-20T00:14:19;10.03;;;2.90;;
26277;SDS011;14000;52.056;8.510;2023-07-20T00:16:46;8.43;;;2.70;;
26277;SDS011;14000;52.056;8.510;2023-07-20T00:19:14;12.43;;;3.43;;
26277;SDS011;14000;52.056;8.510;2023-07-20T00:21:41;10.27;;;3.50;;
26277;SDS011;14000;52.056;8.510;2023-07-20T00:24:07;8.90;;;3.30;;
26277;SDS011;14000;52.056;8.510;2023-07-20T00:26:33;13.30;;;4.13;;
26277;SDS011;14000;52.056;8.510;2023-07-20T00:28:59;9.67;;;4.90;;
26277;SDS011;14000;52.056;8.510;2023-07-20T00:31:24;13.50;;;4.67;;
26277;SDS011;14000;52.056;8.510;2023-07-20T00:33:50;10.93;;;4.73;;
26277;SDS011;14000;52.056;8.510;2023-07-20T00:36:16;14.27;;;5.93;;
26277;SDS011;14000;52.056;8.510;2023-07-20T00:38:42;13.17;;;6.00;;
26277;SDS011;14000;52.056;8.510;2023-07-20T00:41:07;14.20;;;6.87;;
26277;SDS011;14000;52.056;8.510;2023-07-20T00:43:33;14.80;;;7.00;;
26277;SDS011;14000;52.056;8.510;2023-07-20T00:45:58;16.67;;;7.97;;
26277;SDS011;14000;52.056;8.510;2023-07-20T00:48:24;16.03;;;7.33;;
26277;SDS011;14000;52.056;8.510;2023-07-20T00:50:50;14.50;;;6.70;;
26277;SDS011;14000;52.056;8.510;2023-07-20T00:53:16;14.53;;;6.70;;
26277;SDS011;14000;52.056;8.510;2023-07-20T00:55:42;15.57;;;7.13;;
26277;SDS011;14000;52.056;8.510;2023-07-20T00:58:08;17.00;;;7.33;;
26277;SDS011;14000;52.056;8.510;2023-07-20T01:00:33;17.00;;;7.13;;
26277;SDS011;14000;52.056;8.510;2023-07-20T01:02:59;15.13;;;7.80;;
26277;SDS011;14000;52.056;8.510;2023-07-20T01:05:27;16.47;;;7.83;;
26277;SDS011;14000;52.056;8.510;2023-07-20T01:08:16;18.47;;;7.20;;
26277;SDS011;14000;52.056;8.510;2023-07-20T01:10:54;15.67;;;7.50;;
26277;SDS011;14000;52.056;8.510;2023-07-20T01:13:24;13.03;;;7.57;;
26277;SDS011;14000;52.056;8.510;2023-07-20T01:16:00;17.40;;;8.17;;
26277;SDS011;14000;52.056;8.510;2023-07-20T01:18:26;20.33;;;7.93;;
26277;SDS011;14000;52.056;8.510;2023-07-20T01:20:52;17.40;;;9.60;;
26277;SDS011;14000;52.056;8.510;2023-07-20T01:31:37;19.43;;;10.77;;
26277;SDS011;14000;52.056;8.510;2023-07-20T01:34:03;23.47;;;11.70;;
26277;SDS011;14000;52.056;8.510;2023-07-20T01:36:33;18.27;;;9.17;;
26277;SDS011;14000;52.056;8.510;2023-07-20T01:39:01;14.17;;;6.90;;
26277;SDS011;14000;52.056;8.510;2023-07-20T01:41:27;14.27;;;5.37;;
26277;SDS011;14000;52.056;8.510;2023-07-20T01:43:53;14.20;;;6.60;;
26277;SDS011;14000;52.056;8.510;2023-07-20T01:46:22;13.90;;;6.90;;
26277;SDS011;14000;52.056;8.510;2023-07-20T01:48:47;19.97;;;7.20;;
26277;SDS011;14000;52.056;8.510;2023-07-20T01:51:13;17.30;;;6.63;;
26277;SDS011;14000;52.056;8.510;2023-07-20T01:53:39;15.00;;;8.10;;
26277;SDS011;14000;52.056;8.510;2023-07-20T01:56:04;14.03;;;6.27;;
26277;SDS011;14000;52.056;8.510;2023-07-20T01:58:30;12.27;;;6.03;;
26277;SDS011;14000;52.056;8.510;2023-07-20T02:00:55;19.27;;;8.93;;
26277;SDS011;14000;52.056;8.510;2023-07-20T02:03:21;16.90;;;9.97;;
26277;SDS011;14000;52.056;8.510;2023-07-20T02:05:48;16.10;;;10.27;;
26277;SDS011;14000;52.056;8.510;2023-07-20T02:08:14;17.40;;;10.03;;
26277;SDS011;14000;52.056;8.510;2023-07-20T02:10:41;17.37;;;9.60;;
26277;SDS011;14000;52.056;8.510;2023-07-20T02:13:07;17.50;;;8.87;;
26277;SDS011;14000;52.056;8.510;2023-07-20T02:15:32;16.23;;;9.37;;
26277;SDS011;14000;52.056;8.510;2023-07-20T02:17:58;18.27;;;11.47;;
26277;SDS011;14000;52.056;8.510;2023-07-20T02:20:23;18.77;;;10.47;;
26277;SDS011;14000;52.056;8.510;2023-07-20T02:22:49;22.07;;;13.10;;
26277;SDS011;14000;52.056;8.510;2023-07-20T02:25:15;22.23;;;11.60;;
26277;SDS011;14000;52.056;8.510;2023-07-20T02:27:41;19.50;;;10.73;;
26277;SDS011;14000;52.056;8.510;2023-07-20T02:30:06;19.30;;;10.30;;
26277;SDS011;14000;52.056;8.510;2023-07-20T02:32:34;21.07;;;10.87;;
26277;SDS011;14000;52.056;8.510;2023-07-20T02:34:59;20.97;;;11.53;;
26277;SDS011;14000;52.056;8.510;2023-07-20T02:37:25;20.67;;;11.40;;
26277;SDS011;14000;52.056;8.510;2023-07-20T02:39:51;20.47;;;10.80;;
26277;SDS011;14000;52.056;8.510;2023-07-20T02:42:16;19.83;;;11.83;;
26277;SDS011;14000;52.056;8.510;2023-07-20T02:44:42;25.07;;;13.87;;
26277;SDS011;14000;52.056;8.510;2023-07-20T02:47:08;23.50;;;13.27;;
26277;SDS011;14000;52.056;8.510;2023-07-20T02:49:34;21.60;;;11.37;;
26277;SDS011;14000;52.056;8.510;2023-07-20T02:51:59;20.60;;;11.23;;
26277;SDS011;14000;52.056;8.510;2023-07-20T02:54:25;21.63;;;12.73;;
26277;SDS011;14000;52.056;8.510;2023-07-20T02:56:50;27.23;;;13.90;;
26277;SDS011;14000;52.056;8.510;2023-07-20T02:59:16;23.43;;;12.80;;
26277;SDS011;14000;52.056;8.510;2023-07-20T03:01:42;23.67;;;13.43;;
26277;SDS011;14000;52.056;8.510;2023-07-20T03:04:07;22.07;;;14.03;;
26277;SDS011;14000;52.056;8.510;2023-07-20T03:06:35;19.33;;;13.00;;
26277;SDS011;14000;52.056;8.510;2023-07-20T03:09:01;22.07;;;14.23;;
26277;SDS011;14000;52.056;8.510;2023-07-20T03:11:27;19.80;;;12.93;;
26277;SDS011;14000;52.056;8.510;2023-07-20T03:13:52;26.03;;;15.13;;
26277;SDS011;14000;52.056;8.510;2023-07-20T03:16:18;23.53;;;12.60;;
26277;SDS011;14000;52.056;8.510;2023-07-20T03:18:44;23.23;;;13.70;;
26277;SDS011;14000;52.056;8.510;2023-07-20T03:21:11;21.37;;;12.40;;
26277;SDS011;14000;52.056;8.510;2023-07-20T03:23:36;19.87;;;11.80;;
26277;SDS011;14000;52.056;8.510;2023-07-20T03:26:03;17.63;;;10.57;;
26277;SDS011;14000;52.056;8.510;2023-07-20T03:28:29;21.40;;;10.67;;
26277;SDS011;14000;52.056;8.510;2023-07-20T03:30:55;16.23;;;10.30;;
26277;SDS011;14000;52.056;8.510;2023-07-20T03:33:22;18.80;;;11.47;;
26277;SDS011;14000;52.056;8.510;2023-07-20T03:35:50;21.10;;;11.50;;
26277;SDS011;14000;52.056;8.510;2023-07-20T03:38:15;20.70;;;12.37;;
26277;SDS011;14000;52.056;8.510;2023-07-20T03:40:48;20.40;;;11.93;;
26277;SDS011;14000;52.056;8.510;2023-07-20T03:43:18;23.13;;;12.93;;
26277;SDS011;14000;52.056;8.510;2023-07-20T03:45:44;25.63;;;14.93;;
26277;SDS011;14000;52.056;8.510;2023-07-20T03:48:10;20.57;;;12.57;;
26277;SDS011;14000;52.056;8.510;2023-07-20T03:50:36;19.40;;;12.20;;
26277;SDS011;14000;52.056;8.510;2023-07-20T03:53:02;19.70;;;12.23;;
26277;SDS011;14000;52.056;8.510;2023-07-20T03:55:28;16.10;;;9.97;;
26277;SDS011;14000;52.056;8.510;2023-07-20T03:57:53;17.23;;;9.97;;
26277;SDS011;14000;52.056;8.510;2023-07-20T04:00:19;14.93;;;8.23;;
26277;SDS011;14000;52.056;8.510;2023-07-20T04:02:45;13.93;;;8.10;;
26277;SDS011;14000;52.056;8.510;2023-07-20T04:05:10;14.57;;;8.40;;
26277;SDS011;14000;52.056;8.510;2023-07-20T04:07:36;14.47;;;7.60;;
26277;SDS011;14000;52.056;8.510;2023-07-20T04:10:02;12.83;;;6.10;;
26277;SDS011;14000;52.056;8.510;2023-07-20T04:12:27;10.37;;;5.50;;
26277;SDS011;14000;52.056;8.510;2023-07-20T04:14:53;12.47;;;6.57;;
26277;SDS011;14000;52.056;8.510;2023-07-20T04:17:18;16.93;;;9.20;;
26277;SDS011;14000;52.056;8.510;2023-07-20T04:19:44;13.13;;;7.30;;
26277;SDS011;14000;52.056;8.510;2023-07-20T04:22:10;20.43;;;10.47;;
26277;SDS011;14000;52.056;8.510;2023-07-20T04:24:35;16.33;;;8.13;;
26277;SDS011;14000;52.056;8.510;2023-07-20T04:27:01;15.43;;;9.13;;
26277;SDS011;14000;52.056;8.510;2023-07-20T04:29:26;16.20;;;9.43;;
26277;SDS011;14000;52.056;8.510;2023-07-20T04:31:52;21.60;;;12.20;;
26277;SDS011;14000;52.056;8.510;2023-07-20T04:34:17;22.07;;;12.47;;
26277;SDS011;14000;52.056;8.510;2023-07-20T04:36:43;18.73;;;11.17;;
26277;SDS011;14000;52.056;8.510;2023-07-20T04:39:09;20.73;;;12.33;;
26277;SDS011;14000;52.056;8.510;2023-07-20T04:41:35;18.73;;;12.00;;
26277;SDS011;14000;52.056;8.510;2023-07-20T04:44:00;17.30;;;11.17;;
26277;SDS011;14000;52.056;8.510;2023-07-20T04:46:26;23.60;;;13.57;;
26277;SDS011;14000;52.056;8.510;2023-07-20T04:48:52;19.30;;;12.93;;
26277;SDS011;14000;52.056;8.510;2023-07-20T04:51:17;21.00;;;13.43;;
26277;SDS011;14000;52.056;8.510;2023-07-20T04:53:46;20.57;;;13.67;;
26277;SDS011;14000;52.056;8.510;2023-07-20T04:56:12;28.60;;;16.27;;
26277;SDS011;14000;52.056;8.510;2023-07-20T04:58:37;21.30;;;13.60;;
26277;SDS011;14000;52.056;8.510;2023-07-20T05:01:03;23.17;;;14.10;;
26277;SDS011;14000;52.056;8.510;2023-07-20T05:03:29;24.60;;;14.60;;
26277;SDS011;14000;52.056;8.510;2023-07-20T05:05:54;23.23;;;13.70;;
26277;SDS011;14000;52.056;8.510;2023-07-20T05:08:20;18.43;;;11.20;;
26277;SDS011;14000;52.056;8.510;2023-07-20T05:10:47;33.77;;;18.47;;
26277;SDS011;14000;52.056;8.510;2023-07-20T05:13:13;17.80;;;11.47;;
26277;SDS011;14000;52.056;8.510;2023-07-20T05:15:38;17.73;;;11.07;;
26277;SDS011;14000;52.056;8.510;2023-07-20T05:18:04;19.07;;;11.00;;
26277;SDS011;14000;52.056;8.510;2023-07-20T05:20:30;16.53;;;9.90;;
26277;SDS011;14000;52.056;8.510;2023-07-20T05:22:56;18.03;;;11.60;;
26277;SDS011;14000;52.056;8.510;2023-07-20T05:25:22;18.83;;;9.60;;
26277;SDS011;14000;52.056;8.510;2023-07-20T05:27:48;19.97;;;11.47;;
26277;SDS011;14000;52.056;8.510;2023-07-20T05:30:14;17.07;;;10.30;;
26277;SDS011;14000;52.056;8.510;2023-07-20T05:32:39;15.53;;;8.77;;
26277;SDS011;14000;52.056;8.510;2023-07-20T05:35:05;16.43;;;10.07;;
26277;SDS011;14000;52.056;8.510;2023-07-20T05:37:31;13.13;;;8.23;;
26277;SDS011;14000;52.056;8.510;2023-07-20T05:39:57;11.93;;;6.73;;
26277;SDS011;14000;52.056;8.510;2023-07-20T05:42:23;12.80;;;6.43;;
26277;SDS011;14000;52.056;8.510;2023-07-20T05:44:48;11.63;;;6.27;;
26277;SDS011;14000;52.056;8.510;2023-07-20T05:47:15;10.20;;;5.47;;
26277;SDS011;14000;52.056;8.510;2023-07-20T05:49:40;10.87;;;5.50;;
26277;SDS011;14000;52.056;8.510;2023-07-20T05:52:06;11.43;;;5.20;;
26277;SDS011;14000;52.056;8.510;2023-07-20T05:54:31;10.03;;;4.63;;
26277;SDS011;14000;52.056;8.510;2023-07-20T05:56:57;10.20;;;6.03;;
26277;SDS011;14000;52.056;8.510;2023-07-20T05:59:23;9.13;;;4.77;;
26277;SDS011;14000;52.056;8.510;2023-07-20T06:01:49;9.47;;;4.70;;
26277;SDS011;14000;52.056;8.510;2023-07-20T06:04:15;11.23;;;5.40;;
26277;SDS011;14000;52.056;8.510;2023-07-20T06:06:41;9.83;;;5.37;;
26277;SDS011;14000;52.056;8.510;2023-07-20T06:09:07;10.17;;;4.93;;
26277;SDS011;14000;52.056;8.510;2023-07-20T06:11:36;10.03;;;5.00;;
26277;SDS011;14000;52.056;8.510;2023-07-20T06:14:05;10.63;;;4.90;;
26277;SDS011;14000;52.056;8.510;2023-07-20T06:16:30;11.53;;;5.43;;
26277;SDS011;14000;52.056;8.510;2023-07-20T06:18:56;9.87;;;5.20;;
26277;SDS011;14000;52.056;8.510;2023-07-20T06:21:22;14.13;;;6.07;;
26277;SDS011;14000;52.056;8.510;2023-07-20T06:23:47;10.17;;;4.93;;
26277;SDS011;14000;52.056;8.510;2023-07-20T06:26:13;10.57;;;4.60;;
26277;SDS011;14000;52.056;8.510;2023-07-20T06:28:39;9.17;;;4.53;;
26277;SDS011;14000;52.056;8.510;2023-07-20T06:31:04;10.47;;;4.20;;
26277;SDS011;14000;52.056;8.510;2023-07-20T06:33:30;8.90;;;3.70;;
26277;SDS011;14000;52.056;8.510;2023-07-20T06:35:56;7.67;;;3.60;;
26277;SDS011;14000;52.056;8.510;2023-07-20T06:38:22;8.97;;;3.00;;
26277;SDS011;14000;52.056;8.510;2023-07-20T06:40:51;7.67;;;3.00;;
26277;SDS011;14000;52.056;8.510;2023-07-20T06:43:17;7.93;;;3.00;;
26277;SDS011;14000;52.056;8.510;2023-07-20T06:45:43;9.77;;;3.10;;
26277;SDS011;14000;52.056;8.510;2023-07-20T06:48:08;7.80;;;3.10;;
26277;SDS011;14000;52.056;8.510;2023-07-20T06:50:34;7.80;;;2.87;;
26277;SDS011;14000;52.056;8.510;2023-07-20T06:53:00;8.67;;;2.83;;
26277;SDS011;14000;52.056;8.510;2023-07-20T06:55:28;7.53;;;2.60;;
26277;SDS011;14000;52.056;8.510;2023-07-20T06:57:53;7.87;;;2.40;;
26277;SDS011;14000;52.056;8.510;2023-07-20T07:00:19;9.07;;;3.03;;
26277;SDS011;14000;52.056;8.510;2023-07-20T07:02:45;7.27;;;2.27;;
26277;SDS011;14000;52.056;8.510;2023-07-20T07:05:10;6.90;;;1.87;;
26277;SDS011;14000;52.056;8.510;2023-07-20T07:07:38;6.20;;;1.70;;
26277;SDS011;14000;52.056;8.510;2023-07-20T07:10:04;7.47;;;1.57;;
26277;SDS011;14000;52.056;8.510;2023-07-20T07:12:30;6.20;;;1.80;;
26277;SDS011;14000;52.056;8.510;2023-07-20T07:14:56;8.43;;;2.00;;
26277;SDS011;14000;52.056;8.510;2023-07-20T07:17:21;7.20;;;2.17;;
26277;SDS011;14000;52.056;8.510;2023-07-20T07:19:47;6.40;;;1.90;;
26277;SDS011;14000;52.056;8.510;2023-07-20T07:22:13;7.13;;;2.00;;
26277;SDS011;14000;52.056;8.510;2023-07-20T07:24:39;5.97;;;1.50;;
26277;SDS011;14000;52.056;8.510;2023-07-20T07:27:06;5.90;;;1.50;;
26277;SDS011;14000;52.056;8.510;2023-07-20T07:29:33;7.47;;;1.80;;
26277;SDS011;14000;52.056;8.510;2023-07-20T07:31:59;5.30;;;1.40;;
26277;SDS011;14000;52.056;8.510;2023-07-20T07:34:24;5.53;;;1.40;;
26277;SDS011;14000;52.056;8.510;2023-07-20T07:36:51;5.77;;;1.60;;
26277;SDS011;14000;52.056;8.510;2023-07-20T07:39:16;5.80;;;1.63;;
26277;SDS011;14000;52.056;8.510;2023-07-20T07:41:42;6.10;;;1.50;;
26277;SDS011;14000;52.056;8.510;2023-07-20T07:44:07;5.10;;;1.37;;
26277;SDS011;14000;52.056;8.510;2023-07-20T07:46:33;6.97;;;1.50;;
26277;SDS011;14000;52.056;8.510;2023-07-20T07:48:59;5.50;;;1.27;;
26277;SDS011;14000;52.056;8.510;2023-07-20T07:51:24;5.13;;;1.30;;
26277;SDS011;14000;52.056;8.510;2023-07-20T07:53:52;5.00;;;1.40;;
26277;SDS011;14000;52.056;8.510;2023-07-20T07:56:17;4.70;;;1.50;;
26277;SDS011;14000;52.056;8.510;2023-07-20T07:58:47;5.87;;;1.40;;
26277;SDS011;14000;52.056;8.510;2023-07-20T08:01:16;7.67;;;1.47;;
26277;SDS011;14000;52.056;8.510;2023-07-20T08:03:44;6.93;;;1.87;;
26277;SDS011;14000;52.056;8.510;2023-07-20T08:06:12;5.77;;;1.53;;
26277;SDS011;14000;52.056;8.510;2023-07-20T08:08:40;6.87;;;1.27;;
26277;SDS011;14000;52.056;8.510;2023-07-20T08:11:07;3.97;;;1.10;;
26277;SDS011;14000;52.056;8.510;2023-07-20T08:13:33;5.30;;;1.30;;
26277;SDS011;14000;52.056;8.510;2023-07-20T08:15:58;5.47;;;1.20;;
26277;SDS011;14000;52.056;8.510;2023-07-20T08:18:24;4.20;;;1.30;;
26277;SDS011;14000;52.056;8.510;2023-07-20T08:20:50;3.80;;;1.17;;
26277;SDS011;14000;52.056;8.510;2023-07-20T08:23:15;5.13;;;1.30;;
26277;SDS011;14000;52.056;8.510;2023-07-20T08:25:41;4.47;;;0.97;;
26277;SDS011;14000;52.056;8.510;2023-07-20T08:28:14;4.30;;;1.00;;
26277;SDS011;14000;52.056;8.510;2023-07-20T08:33:12;5.17;;;1.30;;
26277;SDS011;14000;52.056;8.510;2023-07-20T08:35:39;4.87;;;1.00;;
26277;SDS011;14000;52.056;8.510;2023-07-20T08:38:05;4.67;;;1.27;;
26277;SDS011;14000;52.056;8.510;2023-07-20T08:40:31;4.40;;;1.10;;
26277;SDS011;14000;52.056;8.510;2023-07-20T08:42:58;3.67;;;0.90;;
26277;SDS011;14000;52.056;8.510;2023-07-20T08:45:27;5.00;;;1.20;;
26277;SDS011;14000;52.056;8.510;2023-07-20T08:47:58;4.20;;;1.07;;
26277;SDS011;14000;52.056;8.510;2023-07-20T08:50:25;6.90;;;1.20;;
26277;SDS011;14000;52.056;8.510;2023-07-20T08:52:53;3.33;;;1.07;;
26277;SDS011;14000;52.056;8.510;2023-07-20T08:55:21;5.07;;;1.10;;
26277;SDS011;14000;52.056;8.510;2023-07-20T08:57:48;5.50;;;1.30;;
26277;SDS011;14000;52.056;8.510;2023-07-20T09:00:16;8.03;;;2.67;;
26277;SDS011;14000;52.056;8.510;2023-07-20T09:02:45;3.87;;;1.00;;
26277;SDS011;14000;52.056;8.510;2023-07-20T09:05:12;5.33;;;1.23;;
26277;SDS011;14000;52.056;8.510;2023-07-20T09:07:39;6.07;;;1.30;;
26277;SDS011;14000;52.056;8.510;2023-07-20T09:10:06;6.33;;;1.13;;
26277;SDS011;14000;52.056;8.510;2023-07-20T09:12:35;5.17;;;1.10;;
26277;SDS011;14000;52.056;8.510;2023-07-20T09:15:03;3.10;;;1.00;;
26277;SDS011;14000;52.056;8.510;2023-07-20T09:17:29;3.60;;;1.10;;
26277;SDS011;14000;52.056;8.510;2023-07-20T09:19:55;4.83;;;1.10;;
26277;SDS011;14000;52.056;8.510;2023-07-20T09:22:21;3.33;;;1.10;;
26277;SDS011;14000;52.056;8.510;2023-07-20T09:24:46;4.03;;;0.90;;
26277;SDS011;14000;52.056;8.510;2023-07-20T09:27:12;5.27;;;1.20;;
26277;SDS011;14000;52.056;8.510;2023-07-20T09:29:47;3.47;;;0.90;;
26277;SDS011;14000;52.056;8.510;2023-07-20T09:32:20;4.47;;;1.00;;
26277;SDS011;14000;52.056;8.510;2023-07-20T09:34:47;2.17;;;0.90;;
26277;SDS011;14000;52.056;8.510;2023-07-20T09:37:14;3.40;;;0.83;;
26277;SDS011;14000;52.056;8.510;2023-07-20T09:39:46;12.53;;;4.87;;
26277;SDS011;14000;52.056;8.510;2023-07-20T09:42:12;4.77;;;1.20;;
26277;SDS011;14000;52.056;8.510;2023-07-20T09:44:38;4.37;;;1.17;;
26277;SDS011;14000;52.056;8.510;2023-07-20T09:47:04;4.47;;;1.00;;
26277;SDS011;14000;52.056;8.510;2023-07-20T09:49:30;2.67;;;1.00;;
26277;SDS011;14000;52.056;8.510;2023-07-20T09:51:57;4.37;;;1.07;;
26277;SDS011;14000;52.056;8.510;2023-07-20T09:54:25;4.00;;;0.93;;
26277;SDS011;14000;52.056;8.510;2023-07-20T09:56:52;6.13;;;1.10;;
26277;SDS011;14000;52.056;8.510;2023-07-20T09:59:18;3.13;;;0.87;;
26277;SDS011;14000;52.056;8.510;2023-07-20T10:01:44;3.87;;;0.90;;
26277;SDS011;14000;52.056;8.510;2023-07-20T10:04:12;3.70;;;1.07;;
26277;SDS011;14000;52.056;8.510;2023-07-20T10:06:42;4.43;;;1.07;;
26277;SDS011;14000;52.056;8.510;2023-07-20T10:09:12;6.93;;;1.10;;
26277;SDS011;14000;52.056;8.510;2023-07-20T10:11:40;2.83;;;0.90;;
26277;SDS011;14000;52.056;8.510;2023-07-20T10:14:16;5.67;;;1.00;;
26277;SDS011;14000;52.056;8.510;2023-07-20T10:16:51;4.17;;;0.80;;
26277;SDS011;14000;52.056;8.510;2023-07-20T10:19:23;6.77;;;1.10;;
26277;SDS011;14000;52.056;8.510;2023-07-20T10:22:10;3.80;;;0.80;;
26277;SDS011;14000;52.056;8.510;2023-07-20T10:24:39;4.27;;;1.10;;
26277;SDS011;14000;52.056;8.510;2023-07-20T10:27:10;3.30;;;1.00;;
26277;SDS011;14000;52.056;8.510;2023-07-20T10:29:35;3.90;;;1.07;;
26277;SDS011;14000;52.056;8.510;2023-07-20T10:32:02;4.10;;;0.90;;
26277;SDS011;14000;52.056;8.510;2023-07-20T10:34:28;3.87;;;0.90;;
26277;SDS011;14000;52.056;8.510;2023-07-20T10:36:53;3.60;;;1.10;;
26277;SDS011;14000;52.056;8.510;2023-07-20T10:39:26;5.07;;;1.03;;
26277;SDS011;14000;52.056;8.510;2023-07-20T10:42:02;4.40;;;1.20;;
26277;SDS011;14000;52.056;8.510;2023-07-20T10:44:29;4.67;;;1.20;;
26277;SDS011;14000;52.056;8.510;2023-07-20T10:46:59;5.03;;;1.10;;
26277;SDS011;14000;52.056;8.510;2023-07-20T10:49:26;4.87;;;1.30;;
26277;SDS011;14000;52.056;8.510;2023-07-20T10:51:59;3.13;;;1.00;;
26277;SDS011;14000;52.056;8.510;2023-07-20T10:56:51;3.97;;;1.20;;
26277;SDS011;14000;52.056;8.510;2023-07-20T11:02:00;6.07;;;1.40;;
26277;SDS011;14000;52.056;8.510;2023-07-20T11:04:38;4.80;;;1.60;;
26277;SDS011;14000;52.056;8.510;2023-07-20T11:07:05;5.90;;;1.60;;
26277;SDS011;14000;52.056;8.510;2023-07-20T11:09:34;5.40;;;1.40;;
26277;SDS011;14000;52.056;8.510;2023-07-20T11:12:33;5.07;;;1.40;;
26277;SDS011;14000;52.056;8.510;2023-07-20T11:14:55;5.47;;;1.47;;
26277;SDS011;14000;52.056;8.510;2023-07-20T11:17:30;5.00;;;1.40;;
26277;SDS011;14000;52.056;8.510;2023-07-20T11:19:57;4.57;;;1.30;;
26277;SDS011;14000;52.056;8.510;2023-07-20T11:22:25;4.27;;;1.37;;
26277;SDS011;14000;52.056;8.510;2023-07-20T11:24:54;4.40;;;1.30;;
26277;SDS011;14000;52.056;8.510;2023-07-20T11:27:20;3.30;;;1.20;;
26277;SDS011;14000;52.056;8.510;2023-07-20T11:29:47;6.33;;;1.40;;
26277;SDS011;14000;52.056;8.510;2023-07-20T11:32:21;4.70;;;1.30;;
26277;SDS011;14000;52.056;8.510;2023-07-20T11:34:48;3.77;;;1.30;;
26277;SDS011;14000;52.056;8.510;2023-07-20T11:37:14;6.67;;;1.50;;
26277;SDS011;14000;52.056;8.510;2023-07-20T11:39:39;2.83;;;1.10;;
26277;SDS011;14000;52.056;8.510;2023-07-20T11:42:05;3.17;;;1.07;;
26277;SDS011;14000;52.056;8.510;2023-07-20T11:44:34;5.23;;;1.27;;
26277;SDS011;14000;52.056;8.510;2023-07-20T11:47:00;5.57;;;1.10;;
26277;SDS011;14000;52.056;8.510;2023-07-20T11:49:42;4.20;;;1.30;;
26277;SDS011;14000;52.056;8.510;2023-07-20T11:52:09;5.10;;;1.30;;
26277;SDS011;14000;52.056;8.510;2023-07-20T11:54:37;3.93;;;1.27;;
26277;SDS011;14000;52.056;8.510;2023-07-20T11:57:04;9.13;;;3.27;;
26277;SDS011;14000;52.056;8.510;2023-07-20T11:59:30;9.93;;;3.73;;
26277;SDS011;14000;52.056;8.510;2023-07-20T12:01:56;4.40;;;1.20;;
26277;SDS011;14000;52.056;8.510;2023-07-20T12:04:23;5.17;;;1.33;;
26277;SDS011;14000;52.056;8.510;2023-07-20T12:06:49;3.93;;;1.07;;
26277;SDS011;14000;52.056;8.510;2023-07-20T12:09:14;3.23;;;1.10;;
26277;SDS011;14000;52.056;8.510;2023-07-20T12:11:42;5.80;;;1.40;;
26277;SDS011;14000;52.056;8.510;2023-07-20T12:14:10;4.40;;;1.20;;
26277;SDS011;14000;52.056;8.510;2023-07-20T12:16:36;5.47;;;1.30;;
26277;SDS011;14000;52.056;8.510;2023-07-20T12:19:06;3.93;;;1.20;;
26277;SDS011;14000;52.056;8.510;2023-07-20T12:21:37;4.67;;;1.30;;
26277;SDS011;14000;52.056;8.510;2023-07-20T12:24:05;3.67;;;1.20;;
26277;SDS011;14000;52.056;8.510;2023-07-20T12:26:32;5.23;;;1.23;;
26277;SDS011;14000;52.056;8.510;2023-07-20T12:28:58;4.37;;;1.13;;
26277;SDS011;14000;52.056;8.510;2023-07-20T12:31:25;3.40;;;1.10;;
26277;SDS011;14000;52.056;8.510;2023-07-20T12:33:51;3.93;;;1.20;;
26277;SDS011;14000;52.056;8.510;2023-07-20T12:36:18;5.13;;;1.20;;
26277;SDS011;14000;52.056;8.510;2023-07-20T12:38:44;4.13;;;1.00;;
26277;SDS011;14000;52.056;8.510;2023-07-20T12:41:10;3.30;;;1.10;;
26277;SDS011;14000;52.056;8.510;2023-07-20T12:43:43;3.63;;;1.10;;
26277;SDS011;14000;52.056;8.510;2023-07-20T12:46:09;3.67;;;1.00;;
26277;SDS011;14000;52.056;8.510;2023-07-20T12:48:39;4.33;;;0.90;;
26277;SDS011;14000;52.056;8.510;2023-07-20T12:51:07;3.53;;;0.90;;
26277;SDS011;14000;52.056;8.510;2023-07-20T12:53:34;4.03;;;1.00;;
26277;SDS011;14000;52.056;8.510;2023-07-20T12:56:00;3.37;;;1.10;;
26277;SDS011;14000;52.056;8.510;2023-07-20T12:58:26;6.20;;;1.83;;
26277;SDS011;14000;52.056;8.510;2023-07-20T13:00:51;6.53;;;1.90;;
26277;SDS011;14000;52.056;8.510;2023-07-20T13:03:18;5.20;;;1.10;;
26277;SDS011;14000;52.056;8.510;2023-07-20T13:05:44;3.90;;;0.90;;
26277;SDS011;14000;52.056;8.510;2023-07-20T13:08:13;1.87;;;0.90;;
26277;SDS011;14000;52.056;8.510;2023-07-20T13:10:39;2.80;;;0.90;;
26277;SDS011;14000;52.056;8.510;2023-07-20T13:13:05;2.33;;;0.90;;
26277;SDS011;14000;52.056;8.510;2023-07-20T13:15:31;4.03;;;1.20;;
26277;SDS011;14000;52.056;8.510;2023-07-20T13:18:05;3.73;;;0.90;;
26277;SDS011;14000;52.056;8.510;2023-07-20T13:20:30;2.57;;;0.70;;
26277;SDS011;14000;52.056;8.510;2023-07-20T13:22:56;3.57;;;1.00;;
26277;SDS011;14000;52.056;8.510;2023-07-20T13:25:21;6.43;;;1.63;;
26277;SDS011;14000;52.056;8.510;2023-07-20T13:27:47;3.47;;;0.70;;
26277;SDS011;14000;52.056;8.510;2023-07-20T13:30:13;3.43;;;0.70;;
26277;SDS011;14000;52.056;8.510;2023-07-20T13:32:42;2.00;;;0.70;;
26277;SDS011;14000;52.056;8.510;2023-07-20T13:35:08;2.40;;;0.90;;
26277;SDS011;14000;52.056;8.510;2023-07-20T13:37:34;2.50;;;0.80;;
26277;SDS011;14000;52.056;8.510;2023-07-20T13:40:00;2.37;;;0.90;;
26277;SDS011;14000;52.056;8.510;2023-07-20T13:42:25;20.33;;;1.63;;
26277;SDS011;14000;52.056;8.510;2023-07-20T13:44:51;6.23;;;1.00;;
26277;SDS011;14000;52.056;8.510;2023-07-20T13:47:17;4.20;;;0.83;;
26277;SDS011;14000;52.056;8.510;2023-07-20T13:49:43;4.23;;;0.80;;
26277;SDS011;14000;52.056;8.510;2023-07-20T13:52:09;7.87;;;1.10;;
26277;SDS011;14000;52.056;8.510;2023-07-20T13:54:34;5.10;;;0.70;;
26277;SDS011;14000;52.056;8.510;2023-07-20T13:57:00;3.87;;;0.80;;
26277;SDS011;14000;52.056;8.510;2023-07-20T13:59:26;3.07;;;0.80;;
26277;SDS011;14000;52.056;8.510;2023-07-20T14:01:51;3.43;;;0.97;;
26277;SDS011;14000;52.056;8.510;2023-07-20T14:04:17;5.13;;;1.00;;
26277;SDS011;14000;52.056;8.510;2023-07-20T14:06:42;2.83;;;0.80;;
26277;SDS011;14000;52.056;8.510;2023-07-20T14:09:09;3.57;;;0.80;;
26277;SDS011;14000;52.056;8.510;2023-07-20T14:11:34;3.13;;;1.00;;
26277;SDS011;14000;52.056;8.510;2023-07-20T14:14:00;4.30;;;0.90;;
26277;SDS011;14000;52.056;8.510;2023-07-20T14:16:25;3.90;;;0.90;;
26277;SDS011;14000;52.056;8.510;2023-07-20T14:18:51;2.83;;;0.80;;
26277;SDS011;14000;52.056;8.510;2023-07-20T14:21:17;4.37;;;0.83;;
26277;SDS011;14000;52.056;8.510;2023-07-20T14:23:45;3.17;;;0.70;;
26277;SDS011;14000;52.056;8.510;2023-07-20T14:26:12;4.27;;;0.80;;
26277;SDS011;14000;52.056;8.510;2023-07-20T14:28:38;2.63;;;0.80;;
26277;SDS011;14000;52.056;8.510;2023-07-20T14:31:04;2.93;;;0.87;;
26277;SDS011;14000;52.056;8.510;2023-07-20T14:33:30;3.73;;;1.00;;
26277;SDS011;14000;52.056;8.510;2023-07-20T14:35:56;2.87;;;1.00;;
26277;SDS011;14000;52.056;8.510;2023-07-20T14:38:21;3.80;;;1.00;;
26277;SDS011;14000;52.056;8.510;2023-07-20T14:40:47;5.83;;;1.10;;
26277;SDS011;14000;52.056;8.510;2023-07-20T14:43:12;4.13;;;0.97;;
26277;SDS011;14000;52.056;8.510;2023-07-20T14:45:39;4.40;;;0.93;;
26277;SDS011;14000;52.056;8.510;2023-07-20T14:48:07;4.37;;;0.90;;
26277;SDS011;14000;52.056;8.510;2023-07-20T14:50:33;4.47;;;0.90;;
26277;SDS011;14000;52.056;8.510;2023-07-20T14:52:59;4.50;;;1.00;;
26277;SDS011;14000;52.056;8.510;2023-07-20T14:55:25;4.77;;;1.10;;